createdAt,value
2019-06-26T00:00:19.815Z,20.87
2019-06-26T00:02:48.270Z,18.60
2019-06-26T00:05:16.945Z,19.65
2019-06-26T00:07:45.533Z,19.92
2019-06-26T00:10:14.809Z,19.05
2019-06-26T00:12:43.594Z,17.92
2019-06-26T00:15:12.820Z,17.67
2019-06-26T00:17:41.264Z,19.80
2019-06-26T00:20:10.113Z,17.27
2019-06-26T00:22:38.512Z,16.97
2019-06-26T00:25:07.794Z,18.15
2019-06-26T00:27:36.232Z,22.82
2019-06-26T00:30:06.770Z,18.62
2019-06-26T00:32:41.700Z,17.92
2019-06-26T00:35:10.551Z,17.27
2019-06-26T00:37:41.397Z,16.50
2019-06-26T00:40:10.280Z,17.27
2019-06-26T00:42:38.700Z,15.58
2019-06-26T00:45:07.770Z,18.40
2019-06-26T00:47:37.249Z,21.00
2019-06-26T00:50:14.463Z,21.02
2019-06-26T00:52:45.347Z,22.70
2019-06-26T00:55:14.110Z,24.52
2019-06-26T00:57:42.524Z,23.18
2019-06-26T01:00:11.970Z,22.82
2019-06-26T01:02:40.383Z,24.55
2019-06-26T01:05:13.046Z,22.00
2019-06-26T01:07:41.458Z,20.62
2019-06-26T01:10:11.528Z,19.92
2019-06-26T01:12:39.936Z,21.10
2019-06-26T01:15:09.101Z,18.60
2019-06-26T01:17:37.520Z,18.05
2019-06-26T01:20:09.156Z,18.55
2019-06-26T01:22:37.573Z,18.12
2019-06-26T01:25:06.342Z,19.20
2019-06-26T01:27:37.476Z,17.70
2019-06-26T01:30:08.828Z,18.12
2019-06-26T01:32:37.244Z,17.10
2019-06-26T01:35:07.487Z,21.10
2019-06-26T01:37:35.957Z,28.80
2019-06-26T01:40:06.741Z,22.30
2019-06-26T01:42:35.150Z,27.42
2019-06-26T01:45:05.312Z,24.57
2019-06-26T01:47:33.821Z,22.32
2019-06-26T01:50:02.302Z,23.87
2019-06-26T01:52:33.353Z,21.07
2019-06-26T01:55:01.789Z,23.10
2019-06-26T01:57:30.206Z,24.20
2019-06-26T01:59:59.517Z,20.62
2019-06-26T02:02:27.955Z,18.65
2019-06-26T02:04:56.432Z,18.90
2019-06-26T02:07:25.792Z,18.48
2019-06-26T02:09:54.312Z,18.27
2019-06-26T02:12:22.745Z,18.60
2019-06-26T02:14:51.161Z,19.32
2019-06-26T02:17:19.610Z,18.27
2019-06-26T02:19:48.030Z,18.55
2019-06-26T02:22:20.595Z,18.87
2019-06-26T02:24:47.796Z,41.67
2019-06-26T02:27:16.196Z,40.48
2019-06-26T02:29:44.637Z,30.37
2019-06-26T02:32:13.056Z,20.23
2019-06-26T02:34:41.467Z,27.20
2019-06-26T02:37:13.519Z,21.17
2019-06-26T02:42:13.416Z,18.30
2019-06-26T02:44:53.303Z,20.70
2019-06-26T02:47:20.145Z,31.27
2019-06-26T02:49:45.453Z,38.43
2019-06-26T02:52:13.981Z,31.20
2019-06-26T02:54:46.516Z,30.93
2019-06-26T02:57:14.916Z,22.87
2019-06-26T02:59:43.349Z,22.30
2019-06-26T03:02:11.752Z,19.32
2019-06-26T03:04:41.282Z,20.85
2019-06-26T03:07:10.807Z,24.35
2019-06-26T03:09:39.248Z,21.48
2019-06-26T03:12:07.668Z,19.85
2019-06-26T03:14:40.137Z,20.95
2019-06-26T03:17:08.528Z,19.42
2019-06-26T03:19:36.937Z,21.68
2019-06-26T03:22:06.485Z,19.02
2019-06-26T03:24:34.882Z,22.10
2019-06-26T03:27:03.430Z,34.85
2019-06-26T03:29:31.859Z,28.10
2019-06-26T03:32:00.292Z,23.95
2019-06-26T03:34:28.733Z,24.40
2019-06-26T03:36:57.158Z,21.25
2019-06-26T03:39:26.479Z,22.02
2019-06-26T03:41:58.526Z,30.35
2019-06-26T03:44:26.944Z,22.65
2019-06-26T03:46:55.347Z,22.40
2019-06-26T03:49:23.874Z,23.30
2019-06-26T03:51:52.307Z,23.38
2019-06-26T03:54:20.728Z,24.45
2019-06-26T03:56:49.126Z,23.87
2019-06-26T03:59:17.544Z,22.73
2019-06-26T04:01:45.948Z,23.00
2019-06-26T04:04:14.388Z,19.45
2019-06-26T04:06:42.804Z,21.05
2019-06-26T04:09:14.845Z,18.92
2019-06-26T04:11:43.631Z,18.92
2019-06-26T04:14:14.499Z,18.90
2019-06-26T04:16:46.317Z,17.92
2019-06-26T04:19:19.089Z,27.50
2019-06-26T04:21:47.565Z,19.42
2019-06-26T04:24:16.934Z,18.55
2019-06-26T04:26:45.360Z,18.52
2019-06-26T04:29:14.715Z,17.50
2019-06-26T04:31:44.137Z,20.37
2019-06-26T04:34:12.553Z,20.20
2019-06-26T04:36:40.957Z,18.10
2019-06-26T04:39:09.361Z,18.12
2019-06-26T04:41:37.790Z,21.70
2019-06-26T04:44:25.671Z,21.93
2019-06-26T04:46:58.239Z,18.42
2019-06-26T04:49:26.642Z,17.00
2019-06-26T04:51:58.751Z,17.60
2019-06-26T04:54:30.710Z,15.70
2019-06-26T04:56:59.115Z,15.25
2019-06-26T04:59:27.530Z,17.30
2019-06-26T05:01:59.479Z,17.00
2019-06-26T05:04:27.888Z,15.88
2019-06-26T05:06:57.264Z,16.62
2019-06-26T05:09:25.689Z,16.20
2019-06-26T05:11:54.096Z,15.45
2019-06-26T05:14:24.957Z,16.37
2019-06-26T05:16:53.386Z,15.35
2019-06-26T05:19:21.826Z,14.60
2019-06-26T05:21:50.256Z,16.50
2019-06-26T05:24:18.669Z,15.23
2019-06-26T05:26:47.085Z,18.10
2019-06-26T05:29:15.492Z,14.53
2019-06-26T05:31:46.338Z,14.20
2019-06-26T05:34:15.766Z,15.53
2019-06-26T05:36:44.174Z,18.55
2019-06-26T05:39:12.589Z,15.23
2019-06-26T05:41:40.997Z,15.03
2019-06-26T05:44:09.410Z,14.80
2019-06-26T05:46:37.844Z,15.43
2019-06-26T05:49:08.831Z,16.40
2019-06-26T05:52:01.998Z,14.20
2019-06-26T05:54:28.990Z,21.07
2019-06-26T05:57:01.491Z,14.70
2019-06-26T05:59:30.953Z,16.02
2019-06-26T06:02:01.757Z,18.05
2019-06-26T06:04:30.413Z,15.37
2019-06-26T06:07:01.383Z,15.25
2019-06-26T06:09:29.773Z,15.57
2019-06-26T06:12:00.864Z,17.23
2019-06-26T06:14:33.025Z,15.23
2019-06-26T06:17:03.851Z,15.93
2019-06-26T06:19:35.915Z,14.87
2019-06-26T06:22:04.366Z,15.80
2019-06-26T06:24:32.782Z,17.37
2019-06-26T06:27:01.181Z,16.00
2019-06-26T06:29:30.798Z,15.95
2019-06-26T06:32:03.475Z,16.60
2019-06-26T06:34:31.883Z,15.83
2019-06-26T06:37:00.352Z,14.70
2019-06-26T06:39:28.741Z,16.55
2019-06-26T06:42:14.633Z,19.85
2019-06-26T06:44:59.160Z,16.97
2019-06-26T06:47:27.577Z,15.60
2019-06-26T06:49:55.989Z,15.13
2019-06-26T06:52:24.387Z,17.65
2019-06-26T06:54:52.805Z,16.23
2019-06-26T06:57:23.096Z,16.27
2019-06-26T06:59:51.520Z,15.00
2019-06-26T07:02:19.928Z,21.70
2019-06-26T07:04:48.366Z,15.32
2019-06-26T07:07:16.765Z,15.28
2019-06-26T07:09:45.201Z,15.43
2019-06-26T07:12:20.768Z,14.23
2019-06-26T07:14:48.486Z,15.60
2019-06-26T07:17:21.138Z,13.95
2019-06-26T07:19:49.936Z,13.93
2019-06-26T07:22:18.405Z,13.43
2019-06-26T07:24:49.270Z,14.25
2019-06-26T07:27:17.688Z,13.08
2019-06-26T07:29:46.128Z,12.45
2019-06-26T07:32:14.652Z,12.03
2019-06-26T07:34:45.741Z,12.28
2019-06-26T07:39:46.702Z,11.05
2019-06-26T07:42:15.135Z,10.70
2019-06-26T07:44:43.604Z,11.55
2019-06-26T07:47:22.832Z,12.05
2019-06-26T07:49:45.971Z,11.15
2019-06-26T07:52:14.832Z,10.98
2019-06-26T07:54:43.189Z,11.03
2019-06-26T07:57:11.615Z,12.47
2019-06-26T07:59:52.660Z,9.43
2019-06-26T08:02:21.057Z,8.40
2019-06-26T08:04:49.510Z,8.95
2019-06-26T08:07:17.970Z,10.93
2019-06-26T08:09:52.949Z,7.85
2019-06-26T08:12:21.410Z,9.15
2019-06-26T08:14:49.815Z,8.98
2019-06-26T08:17:20.756Z,8.30
2019-06-26T08:19:49.174Z,8.58
2019-06-26T08:22:17.614Z,9.33
2019-06-26T08:24:49.845Z,9.43
2019-06-26T08:27:18.240Z,9.75
2019-06-26T08:29:46.674Z,10.08
2019-06-26T08:32:15.094Z,8.50
2019-06-26T08:34:43.497Z,10.20
2019-06-26T08:37:11.903Z,11.83
2019-06-26T08:39:42.796Z,9.83
2019-06-26T08:42:11.191Z,8.35
2019-06-26T08:44:39.597Z,8.88
2019-06-26T08:47:08.004Z,9.80
2019-06-26T08:49:36.413Z,12.15
2019-06-26T08:52:05.770Z,10.58
2019-06-26T08:54:34.197Z,12.70
2019-06-26T08:57:06.688Z,13.98
2019-06-26T08:59:37.526Z,11.37
2019-06-26T09:02:08.461Z,9.60
2019-06-26T09:04:37.172Z,10.07
2019-06-26T09:07:05.639Z,9.58
2019-06-26T09:09:34.117Z,11.33
2019-06-26T09:12:02.542Z,9.95
2019-06-26T09:14:30.951Z,10.25
2019-06-26T09:16:59.350Z,8.70
2019-06-26T09:19:30.512Z,11.15
2019-06-26T09:22:03.072Z,15.13
2019-06-26T09:24:31.462Z,9.73
2019-06-26T09:27:01.898Z,10.23
2019-06-26T09:29:31.315Z,8.73
2019-06-26T09:31:59.725Z,11.05
2019-06-26T09:34:29.097Z,10.58
2019-06-26T09:36:59.962Z,7.58
2019-06-26T09:39:28.361Z,14.27
2019-06-26T09:41:56.760Z,9.88
2019-06-26T09:44:25.187Z,17.57
2019-06-26T09:46:57.446Z,8.60
2019-06-26T09:49:33.117Z,9.75
2019-06-26T09:52:04.012Z,10.58
2019-06-26T09:54:33.549Z,13.90
2019-06-26T09:57:03.109Z,10.70
2019-06-26T09:59:37.342Z,16.40
2019-06-26T10:02:08.388Z,17.27
2019-06-26T10:04:36.846Z,11.27
2019-06-26T10:07:09.294Z,13.35
2019-06-26T10:09:41.755Z,11.20
2019-06-26T10:12:11.286Z,14.03
2019-06-26T10:14:47.311Z,17.48
2019-06-26T10:17:09.923Z,15.15
2019-06-26T10:19:43.278Z,14.77
2019-06-26T10:22:11.653Z,21.90
2019-06-26T10:24:42.201Z,17.92
2019-06-26T10:27:10.625Z,18.45
2019-06-26T10:29:39.037Z,17.40
2019-06-26T10:32:07.453Z,15.80
2019-06-26T10:34:35.848Z,16.02
2019-06-26T10:37:06.830Z,14.58
2019-06-26T10:39:51.606Z,14.73
2019-06-26T10:42:23.553Z,18.77
2019-06-26T10:44:54.446Z,22.17
2019-06-26T10:47:25.317Z,16.20
2019-06-26T10:49:53.737Z,20.13
2019-06-26T10:52:22.461Z,14.53
2019-06-26T10:54:50.969Z,18.25
2019-06-26T10:57:19.384Z,15.23
2019-06-26T10:59:47.811Z,14.63
2019-06-26T11:02:17.282Z,15.35
2019-06-26T11:04:48.133Z,16.42
2019-06-26T11:07:22.135Z,14.83
2019-06-26T11:09:54.413Z,20.00
2019-06-26T11:12:32.708Z,14.75
2019-06-26T11:15:01.213Z,13.28
2019-06-26T11:17:29.626Z,14.87
2019-06-26T11:20:06.145Z,18.48
2019-06-26T11:22:38.622Z,16.48
2019-06-26T11:25:08.561Z,16.90
2019-06-26T11:27:37.263Z,15.63
2019-06-26T11:30:12.409Z,18.42
2019-06-26T11:32:40.831Z,15.15
2019-06-26T11:35:12.517Z,14.07
2019-06-26T11:37:41.898Z,13.40
2019-06-26T11:40:10.898Z,12.43
2019-06-26T11:42:39.318Z,12.53
2019-06-26T11:45:08.564Z,15.58
2019-06-26T11:47:45.887Z,25.23
2019-06-26T11:50:19.635Z,11.38
2019-06-26T11:52:52.625Z,19.82
2019-06-26T11:55:21.321Z,17.60
2019-06-26T11:57:49.724Z,11.78
2019-06-26T12:00:20.959Z,10.20
2019-06-26T12:02:49.355Z,16.05
2019-06-26T12:05:18.268Z,13.45
2019-06-26T12:08:05.498Z,8.88
2019-06-26T12:10:43.854Z,14.53
2019-06-26T12:13:13.219Z,14.45
2019-06-26T12:15:41.638Z,13.08
2019-06-26T12:18:10.107Z,21.48
2019-06-26T12:20:41.776Z,14.73
2019-06-26T12:23:13.729Z,12.15
2019-06-26T12:25:42.128Z,16.67
2019-06-26T12:28:10.542Z,15.00
2019-06-26T12:30:43.996Z,13.75
2019-06-26T12:33:12.472Z,13.72
2019-06-26T12:35:40.857Z,13.70
2019-06-26T12:38:09.279Z,13.55
2019-06-26T12:40:37.698Z,17.40
2019-06-26T12:43:13.777Z,13.70
2019-06-26T12:45:52.702Z,12.73
2019-06-26T12:48:30.719Z,11.77
2019-06-26T12:50:59.188Z,16.70
2019-06-26T12:53:33.441Z,16.35
2019-06-26T12:56:00.483Z,20.02
2019-06-26T12:58:28.875Z,13.33
2019-06-26T13:00:57.352Z,15.25
2019-06-26T13:03:29.906Z,14.20
2019-06-26T13:06:03.745Z,12.90
2019-06-26T13:08:33.128Z,15.90
2019-06-26T13:11:05.008Z,13.32
2019-06-26T13:16:10.110Z,16.17
2019-06-26T13:18:38.521Z,12.68
2019-06-26T13:21:09.342Z,14.73
2019-06-26T13:23:37.697Z,19.80
2019-06-26T13:26:06.092Z,15.58
2019-06-26T13:28:35.586Z,17.07
2019-06-26T13:31:04.010Z,23.70
2019-06-26T13:33:33.363Z,15.65
2019-06-26T13:36:06.648Z,19.05
2019-06-26T13:38:35.062Z,22.27
2019-06-26T13:41:06.102Z,19.23
2019-06-26T13:43:34.668Z,15.00
2019-06-26T13:46:03.079Z,19.80
2019-06-26T13:48:31.469Z,24.65
2019-06-26T13:51:09.233Z,17.42
2019-06-26T13:53:34.316Z,14.43
2019-06-26T13:56:03.005Z,16.02
2019-06-26T13:58:31.514Z,17.70
2019-06-26T14:00:59.924Z,14.13
2019-06-26T14:03:28.368Z,17.13
2019-06-26T14:05:56.754Z,20.75
2019-06-26T14:08:25.223Z,16.93
2019-06-26T14:11:07.670Z,17.82
2019-06-26T14:13:41.697Z,17.17
2019-06-26T14:16:11.127Z,17.87
2019-06-26T14:18:42.065Z,16.02
2019-06-26T14:21:24.574Z,18.27
2019-06-26T14:23:43.134Z,17.90
2019-06-26T14:26:15.410Z,18.35
2019-06-26T14:28:47.831Z,16.77
2019-06-26T14:31:16.249Z,16.97
2019-06-26T14:33:44.666Z,12.53
2019-06-26T14:36:13.091Z,14.13
2019-06-26T14:38:41.549Z,14.63
2019-06-26T14:41:09.970Z,17.80
2019-06-26T14:43:40.813Z,12.80
2019-06-26T14:46:12.417Z,17.17
2019-06-26T14:48:43.675Z,20.37
2019-06-26T14:51:12.079Z,10.85
2019-06-26T14:53:40.487Z,19.48
2019-06-26T14:56:09.952Z,15.68
2019-06-26T14:58:38.445Z,20.50
2019-06-26T15:01:06.810Z,16.32
2019-06-26T15:03:36.313Z,19.10
2019-06-26T15:06:15.961Z,12.35
2019-06-26T15:08:36.371Z,18.40
2019-06-26T15:11:15.377Z,14.43
2019-06-26T15:13:42.536Z,13.75
2019-06-26T15:16:10.937Z,13.85
2019-06-26T15:18:39.335Z,9.65
2019-06-26T15:21:08.880Z,10.45
2019-06-26T15:23:37.296Z,15.83
2019-06-26T15:26:12.564Z,13.58
2019-06-26T15:28:40.967Z,17.73
2019-06-26T15:31:13.094Z,10.78
2019-06-26T15:33:41.490Z,11.70
2019-06-26T15:36:12.533Z,10.82
2019-06-26T15:38:40.931Z,13.58
2019-06-26T15:41:09.370Z,15.00
2019-06-26T15:43:37.785Z,12.18
2019-06-26T15:46:06.176Z,15.78
2019-06-26T15:48:34.620Z,16.02
2019-06-26T15:51:03.041Z,11.78
2019-06-26T15:53:31.488Z,13.22
2019-06-26T15:56:03.942Z,14.53
2019-06-26T15:58:32.404Z,13.95
2019-06-26T16:01:01.962Z,14.20
2019-06-26T16:03:32.868Z,15.13
2019-06-26T16:06:01.270Z,17.57
2019-06-26T16:08:29.698Z,13.05
2019-06-26T16:11:05.107Z,11.78
2019-06-26T16:13:33.586Z,12.80
2019-06-26T16:16:02.006Z,10.68
2019-06-26T16:18:38.335Z,10.70
2019-06-26T16:21:06.742Z,9.80
2019-06-26T16:23:36.293Z,12.45
2019-06-26T16:26:04.967Z,11.50
2019-06-26T16:28:37.348Z,13.08
2019-06-26T16:31:05.741Z,9.20
2019-06-26T16:33:35.196Z,7.45
2019-06-26T16:36:03.642Z,12.50
2019-06-26T16:38:45.467Z,12.17
2019-06-26T16:41:13.996Z,7.90
2019-06-26T16:43:42.403Z,7.30
2019-06-26T16:46:13.350Z,9.55
2019-06-26T16:48:44.219Z,9.43
2019-06-26T16:51:13.520Z,9.05
2019-06-26T16:53:41.929Z,8.30
2019-06-26T16:56:10.402Z,8.25
2019-06-26T16:58:38.851Z,9.40
2019-06-26T17:01:07.430Z,10.95
2019-06-26T17:03:35.872Z,12.28
2019-06-26T17:06:05.222Z,13.20
2019-06-26T17:08:33.643Z,16.35
2019-06-26T17:11:03.027Z,11.25
2019-06-26T17:13:31.459Z,10.98
2019-06-26T17:15:59.893Z,12.93
2019-06-26T17:18:32.120Z,10.83
2019-06-26T17:23:28.233Z,8.47
2019-06-26T17:25:56.631Z,10.85
2019-06-26T17:28:31.565Z,10.60
2019-06-26T17:30:57.698Z,8.30
2019-06-26T17:33:27.734Z,13.13
2019-06-26T17:35:56.075Z,10.60
2019-06-26T17:38:25.412Z,10.57
2019-06-26T17:40:54.768Z,8.10
2019-06-26T17:43:24.305Z,10.43
2019-06-26T17:45:56.450Z,9.65
2019-06-26T17:48:24.981Z,11.12
2019-06-26T17:50:54.401Z,12.45
2019-06-26T17:53:23.857Z,11.93
2019-06-26T17:55:52.265Z,12.78
2019-06-26T17:58:25.359Z,13.73
2019-06-26T18:00:53.319Z,11.97
2019-06-26T18:03:25.773Z,11.67
2019-06-26T18:05:54.251Z,12.35
2019-06-26T18:08:35.418Z,12.23
2019-06-26T18:11:04.015Z,13.88
2019-06-26T18:13:39.977Z,9.35
2019-06-26T18:16:09.359Z,11.18
2019-06-26T18:18:41.681Z,8.65
2019-06-26T18:23:58.769Z,10.53
2019-06-26T18:26:26.811Z,7.45
2019-06-26T18:28:58.863Z,8.23
2019-06-26T18:31:33.644Z,10.50
2019-06-26T18:34:05.963Z,9.40
2019-06-26T18:39:32.772Z,7.58
2019-06-26T18:42:01.159Z,5.97
2019-06-26T18:44:30.474Z,5.58
2019-06-26T18:46:58.868Z,5.45
2019-06-26T18:49:41.040Z,7.65
2019-06-26T18:52:09.950Z,4.85
2019-06-26T18:54:39.404Z,4.53
2019-06-26T18:57:20.991Z,6.12
2019-06-26T19:00:08.187Z,6.70
2019-06-26T19:02:41.194Z,6.25
2019-06-26T19:05:11.241Z,10.38
2019-06-26T19:07:39.655Z,8.95
2019-06-26T19:10:12.739Z,8.55
2019-06-26T19:12:46.910Z,8.50
2019-06-26T19:15:20.066Z,13.43
2019-06-26T19:17:49.435Z,7.22
2019-06-26T19:20:18.988Z,12.03
2019-06-26T19:22:51.997Z,9.00
2019-06-26T19:25:21.410Z,11.35
2019-06-26T19:27:50.030Z,5.62
2019-06-26T19:30:19.148Z,6.20
2019-06-26T19:32:47.564Z,8.93
2019-06-26T19:35:21.360Z,14.03
2019-06-26T19:37:55.060Z,11.03
2019-06-26T19:40:29.035Z,9.87
2019-06-26T19:43:00.187Z,11.10
2019-06-26T19:45:36.091Z,13.40
2019-06-26T19:48:08.482Z,13.40
2019-06-26T19:50:36.906Z,8.40
2019-06-26T19:53:09.169Z,7.33
2019-06-26T19:58:08.578Z,13.10
2019-06-26T20:00:37.355Z,6.45
2019-06-26T20:03:09.307Z,14.20
2019-06-26T20:05:40.462Z,12.10
2019-06-26T20:08:08.861Z,11.03
2019-06-26T20:10:39.768Z,10.13
2019-06-26T20:13:16.945Z,10.00
2019-06-26T20:15:56.371Z,10.85
2019-06-26T20:18:27.298Z,8.83
2019-06-26T20:20:58.453Z,9.13
2019-06-26T20:23:26.858Z,13.10
2019-06-26T20:25:55.265Z,8.70
2019-06-26T20:31:17.219Z,9.73
2019-06-26T20:33:49.721Z,10.32
2019-06-26T20:36:18.133Z,12.33
2019-06-26T20:38:46.537Z,9.43
2019-06-26T20:41:14.954Z,7.03
2019-06-26T20:43:43.359Z,8.13
2019-06-26T20:46:15.523Z,9.55
2019-06-26T20:48:44.104Z,8.65
2019-06-26T20:51:12.690Z,8.48
2019-06-26T20:53:41.129Z,8.53
2019-06-26T20:56:10.824Z,8.08
2019-06-26T20:58:39.256Z,9.53
2019-06-26T21:01:09.657Z,10.03
2019-06-26T21:03:39.170Z,10.18
2019-06-26T21:06:10.314Z,8.75
2019-06-26T21:08:39.829Z,7.03
2019-06-26T21:11:15.776Z,13.68
2019-06-26T21:13:44.039Z,6.87
2019-06-26T21:16:17.550Z,9.83
2019-06-26T21:18:47.050Z,9.35
2019-06-26T21:21:15.486Z,8.95
2019-06-26T21:23:44.839Z,8.98
2019-06-26T21:26:13.228Z,6.78
2019-06-26T21:28:45.173Z,7.33
2019-06-26T21:31:16.074Z,11.00
2019-06-26T21:33:48.379Z,8.98
2019-06-26T21:38:47.051Z,8.43
2019-06-26T21:41:17.505Z,10.30
2019-06-26T21:47:09.368Z,7.30
2019-06-26T21:49:37.792Z,8.93
2019-06-26T21:52:08.684Z,13.88
2019-06-26T21:54:39.614Z,9.15
2019-06-26T21:57:11.606Z,13.70
2019-06-26T21:59:43.974Z,8.35
2019-06-26T22:04:42.532Z,11.25
2019-06-26T22:07:12.877Z,9.20
2019-06-26T22:09:42.368Z,10.55
2019-06-26T22:12:10.879Z,12.05
2019-06-26T22:14:39.273Z,10.88
2019-06-26T22:17:08.965Z,11.97
2019-06-26T22:19:37.274Z,9.28
2019-06-26T22:22:05.687Z,9.13
2019-06-26T22:24:34.295Z,10.78
2019-06-26T22:27:02.692Z,10.28
2019-06-26T22:29:32.191Z,12.85
2019-06-26T22:32:00.689Z,11.35
2019-06-26T22:34:29.090Z,15.48
2019-06-26T22:36:58.521Z,10.08
2019-06-26T22:39:27.083Z,6.77
2019-06-26T22:41:56.507Z,12.18
2019-06-26T22:44:24.912Z,10.20
2019-06-26T22:46:56.994Z,9.13
2019-06-26T22:51:53.018Z,9.38
2019-06-26T22:54:21.408Z,9.80
2019-06-26T22:56:49.900Z,9.60
2019-06-26T22:59:18.320Z,14.55
2019-06-26T23:01:46.730Z,11.73
2019-06-26T23:04:26.776Z,10.45
2019-06-26T23:06:55.191Z,13.30
2019-06-26T23:09:24.648Z,8.95
2019-06-26T23:11:53.138Z,10.20
2019-06-26T23:14:21.539Z,10.13
2019-06-26T23:16:56.403Z,9.85
2019-06-26T23:19:24.800Z,13.35
2019-06-26T23:21:57.046Z,8.03
2019-06-26T23:24:30.031Z,7.15
2019-06-26T23:27:02.653Z,11.65
2019-06-26T23:29:32.155Z,8.83
2019-06-26T23:32:03.282Z,8.75
2019-06-26T23:34:30.734Z,10.70
2019-06-26T23:37:04.116Z,11.60
2019-06-26T23:39:36.787Z,7.33
2019-06-26T23:42:09.010Z,14.40
2019-06-26T23:44:39.975Z,10.10
2019-06-26T23:47:12.389Z,11.78
2019-06-26T23:52:16.851Z,10.30
2019-06-26T23:54:47.875Z,11.78
2019-06-26T23:57:19.723Z,9.65
